sensor_id;sensor_type;location;lat;lon;timestamp;pressure;altitude;pressure_sealevel;temperature;humidity
47430;BME280;33181;49.246;7.372;2022-08-01T00:00:35;98891.00;;;23.83;55.64
47430;BME280;33181;49.246;7.372;2022-08-01T00:03:00;98890.16;;;23.82;55.57
47430;BME280;33181;49.246;7.372;2022-08-01T00:05:26;98889.75;;;23.79;55.97
47430;BME280;33181;49.246;7.372;2022-08-01T00:07:52;98893.47;;;23.78;55.86
47430;BME280;33181;49.246;7.372;2022-08-01T00:10:18;98887.31;;;23.77;55.78
47430;BME280;33181;49.246;7.372;2022-08-01T00:12:45;98888.13;;;23.85;55.72
47430;BME280;33181;49.246;7.372;2022-08-01T00:15:14;98891.63;;;23.78;55.97
47430;BME280;33181;49.246;7.372;2022-08-01T00:17:41;98890.59;;;23.79;55.91
47430;BME280;33181;49.246;7.372;2022-08-01T00:20:10;98897.63;;;23.80;55.70
47430;BME280;33181;49.246;7.372;2022-08-01T00:22:36;98893.66;;;23.83;55.83
47430;BME280;33181;49.246;7.372;2022-08-01T00:25:05;98901.53;;;23.85;55.34
47430;BME280;33181;49.246;7.372;2022-08-01T00:27:31;98902.34;;;23.85;55.42
47430;BME280;33181;49.246;7.372;2022-08-01T00:29:57;98894.53;;;23.84;55.42
47430;BME280;33181;49.246;7.372;2022-08-01T00:32:23;98907.72;;;23.78;55.71
47430;BME280;33181;49.246;7.372;2022-08-01T00:34:49;98900.91;;;23.76;56.16
47430;BME280;33181;49.246;7.372;2022-08-01T00:37:15;98901.31;;;23.73;55.90
47430;BME280;33181;49.246;7.372;2022-08-01T00:39:41;98901.72;;;23.70;56.02
47430;BME280;33181;49.246;7.372;2022-08-01T00:42:09;98897.41;;;23.69;55.81
47430;BME280;33181;49.246;7.372;2022-08-01T00:44:35;98894.69;;;23.62;56.42
47430;BME280;33181;49.246;7.372;2022-08-01T00:47:03;98894.28;;;23.65;56.09
47430;BME280;33181;49.246;7.372;2022-08-01T00:49:29;98893.00;;;23.54;56.64
47430;BME280;33181;49.246;7.372;2022-08-01T00:51:55;98894.59;;;23.35;57.55
47430;BME280;33181;49.246;7.372;2022-08-01T00:54:23;98890.25;;;23.21;57.86
47430;BME280;33181;49.246;7.372;2022-08-01T00:56:49;98893.53;;;23.17;58.06
47430;BME280;33181;49.246;7.372;2022-08-01T00:59:17;98885.88;;;23.13;57.70
47430;BME280;33181;49.246;7.372;2022-08-01T01:01:44;98891.25;;;23.13;57.91
47430;BME280;33181;49.246;7.372;2022-08-01T01:04:10;98883.41;;;23.12;57.62
47430;BME280;33181;49.246;7.372;2022-08-01T01:06:48;98884.00;;;23.07;57.79
47430;BME280;33181;49.246;7.372;2022-08-01T01:15:10;98890.50;;;22.91;58.73
47430;BME280;33181;49.246;7.372;2022-08-01T01:17:54;98886.56;;;22.81;58.89
47430;BME280;33181;49.246;7.372;2022-08-01T01:20:37;98890.69;;;22.77;58.93
47430;BME280;33181;49.246;7.372;2022-08-01T01:32:04;98883.66;;;22.41;60.38
47430;BME280;33181;49.246;7.372;2022-08-01T01:34:34;98884.38;;;22.21;60.94
47430;BME280;33181;49.246;7.372;2022-08-01T01:37:02;98886.16;;;22.14;61.27
47430;BME280;33181;49.246;7.372;2022-08-01T01:39:31;98884.44;;;22.07;61.40
47430;BME280;33181;49.246;7.372;2022-08-01T01:41:58;98885.03;;;22.02;61.63
47430;BME280;33181;49.246;7.372;2022-08-01T01:44:26;98877.44;;;22.06;61.04
47430;BME280;33181;49.246;7.372;2022-08-01T01:46:53;98882.78;;;22.06;61.15
47430;BME280;33181;49.246;7.372;2022-08-01T01:49:25;98884.44;;;22.07;61.17
47430;BME280;33181;49.246;7.372;2022-08-01T01:51:55;98888.94;;;22.06;61.22
47430;BME280;33181;49.246;7.372;2022-08-01T01:54:36;98886.50;;;22.05;61.27
47430;BME280;33181;49.246;7.372;2022-08-01T01:57:03;98891.00;;;22.04;61.07
47430;BME280;33181;49.246;7.372;2022-08-01T01:59:34;98886.50;;;22.05;60.98
47430;BME280;33181;49.246;7.372;2022-08-01T02:02:03;98885.28;;;22.07;60.95
47430;BME280;33181;49.246;7.372;2022-08-01T02:04:30;98887.69;;;22.02;61.32
47430;BME280;33181;49.246;7.372;2022-08-01T02:06:57;98884.75;;;21.97;61.41
47430;BME280;33181;49.246;7.372;2022-08-01T02:09:24;98894.19;;;21.93;61.70
47430;BME280;33181;49.246;7.372;2022-08-01T02:11:53;98882.84;;;21.91;61.44
47430;BME280;33181;49.246;7.372;2022-08-01T02:14:20;98886.00;;;21.94;61.46
47430;BME280;33181;49.246;7.372;2022-08-01T02:16:49;98889.13;;;21.98;61.28
47430;BME280;33181;49.246;7.372;2022-08-01T02:19:17;98887.72;;;21.81;62.27
47430;BME280;33181;49.246;7.372;2022-08-01T02:22:04;98890.06;;;21.69;62.42
47430;BME280;33181;49.246;7.372;2022-08-01T02:25:22;98892.69;;;21.62;62.41
47430;BME280;33181;49.246;7.372;2022-08-01T02:28:06;98888.50;;;21.53;62.86
47430;BME280;33181;49.246;7.372;2022-08-01T02:30:37;98888.44;;;21.46;63.09
47430;BME280;33181;49.246;7.372;2022-08-01T02:33:16;98884.22;;;21.37;63.30
47430;BME280;33181;49.246;7.372;2022-08-01T02:35:52;98889.09;;;21.34;63.70
47430;BME280;33181;49.246;7.372;2022-08-01T02:38:24;98887.53;;;21.39;63.24
47430;BME280;33181;49.246;7.372;2022-08-01T02:40:53;98890.28;;;21.46;63.07
47430;BME280;33181;49.246;7.372;2022-08-01T02:43:22;98888.25;;;21.48;62.96
47430;BME280;33181;49.246;7.372;2022-08-01T02:45:54;98894.69;;;21.54;62.77
47430;BME280;33181;49.246;7.372;2022-08-01T02:48:22;98900.47;;;21.57;62.60
47430;BME280;33181;49.246;7.372;2022-08-01T02:50:54;98896.13;;;21.56;63.07
47430;BME280;33181;49.246;7.372;2022-08-01T02:53:23;98891.69;;;21.42;63.32
47430;BME280;33181;49.246;7.372;2022-08-01T02:55:51;98893.44;;;21.35;63.61
47430;BME280;33181;49.246;7.372;2022-08-01T02:58:20;98898.44;;;21.38;63.32
47430;BME280;33181;49.246;7.372;2022-08-01T03:00:47;98896.38;;;21.40;63.37
47430;BME280;33181;49.246;7.372;2022-08-01T03:03:14;98899.69;;;21.42;63.18
47430;BME280;33181;49.246;7.372;2022-08-01T03:05:43;98892.06;;;21.39;63.51
47430;BME280;33181;49.246;7.372;2022-08-01T03:08:10;98896.59;;;21.38;63.14
47430;BME280;33181;49.246;7.372;2022-08-01T03:10:38;98903.78;;;21.38;63.21
47430;BME280;33181;49.246;7.372;2022-08-01T03:13:07;98901.63;;;21.33;63.29
47430;BME280;33181;49.246;7.372;2022-08-01T03:15:37;98899.78;;;21.34;63.38
47430;BME280;33181;49.246;7.372;2022-08-01T03:18:07;98906.72;;;21.28;63.71
47430;BME280;33181;49.246;7.372;2022-08-01T03:20:35;98903.97;;;21.21;63.85
47430;BME280;33181;49.246;7.372;2022-08-01T03:23:09;98901.47;;;21.20;63.99
47430;BME280;33181;49.246;7.372;2022-08-01T03:25:38;98901.66;;;21.18;63.94
47430;BME280;33181;49.246;7.372;2022-08-01T03:28:07;98905.44;;;21.24;63.79
47430;BME280;33181;49.246;7.372;2022-08-01T03:30:35;98913.66;;;21.22;63.76
47430;BME280;33181;49.246;7.372;2022-08-01T03:33:02;98913.44;;;21.24;63.89
47430;BME280;33181;49.246;7.372;2022-08-01T03:35:37;98910.97;;;21.22;63.58
47430;BME280;33181;49.246;7.372;2022-08-01T03:38:06;98906.00;;;21.19;63.66
47430;BME280;33181;49.246;7.372;2022-08-01T03:40:41;98916.25;;;21.16;63.64
47430;BME280;33181;49.246;7.372;2022-08-01T03:43:35;98916.78;;;21.11;63.59
47430;BME280;33181;49.246;7.372;2022-08-01T03:46:09;98915.53;;;20.92;64.33
47430;BME280;33181;49.246;7.372;2022-08-01T03:48:40;98906.91;;;20.75;64.83
47430;BME280;33181;49.246;7.372;2022-08-01T03:51:09;98903.78;;;20.72;65.09
47430;BME280;33181;49.246;7.372;2022-08-01T03:53:37;98902.31;;;20.69;65.30
47430;BME280;33181;49.246;7.372;2022-08-01T03:56:04;98914.81;;;20.69;65.18
47430;BME280;33181;49.246;7.372;2022-08-01T03:58:36;98910.75;;;20.58;65.21
47430;BME280;33181;49.246;7.372;2022-08-01T04:01:05;98915.28;;;20.57;65.29
47430;BME280;33181;49.246;7.372;2022-08-01T04:03:32;98917.41;;;20.62;65.34
47430;BME280;33181;49.246;7.372;2022-08-01T04:05:58;98911.13;;;20.70;64.80
47430;BME280;33181;49.246;7.372;2022-08-01T04:08:35;98921.16;;;20.68;64.82
47430;BME280;33181;49.246;7.372;2022-08-01T04:11:01;98919.81;;;20.72;64.88
47430;BME280;33181;49.246;7.372;2022-08-01T04:13:27;98925.59;;;20.75;64.67
47430;BME280;33181;49.246;7.372;2022-08-01T04:15:53;98923.38;;;20.79;64.66
47430;BME280;33181;49.246;7.372;2022-08-01T04:18:18;98924.84;;;20.81;64.76
47430;BME280;33181;49.246;7.372;2022-08-01T04:20:46;98927.78;;;20.87;64.52
47430;BME280;33181;49.246;7.372;2022-08-01T04:23:15;98924.38;;;20.93;64.50
47430;BME280;33181;49.246;7.372;2022-08-01T04:25:43;98922.44;;;21.01;64.19
47430;BME280;33181;49.246;7.372;2022-08-01T04:28:12;98931.91;;;21.04;64.19
47430;BME280;33181;49.246;7.372;2022-08-01T04:30:44;98928.88;;;21.07;64.23
47430;BME280;33181;49.246;7.372;2022-08-01T04:33:14;98930.81;;;21.13;64.25
47430;BME280;33181;49.246;7.372;2022-08-01T04:35:44;98937.88;;;21.21;64.01
47430;BME280;33181;49.246;7.372;2022-08-01T04:38:17;98942.28;;;21.28;64.04
47430;BME280;33181;49.246;7.372;2022-08-01T04:40:45;98936.16;;;21.49;63.57
47430;BME280;33181;49.246;7.372;2022-08-01T04:43:12;98944.25;;;21.56;63.60
47430;BME280;33181;49.246;7.372;2022-08-01T04:45:38;98947.19;;;21.61;63.08
47430;BME280;33181;49.246;7.372;2022-08-01T04:48:08;98945.72;;;21.59;63.31
47430;BME280;33181;49.246;7.372;2022-08-01T04:50:35;98950.09;;;22.09;63.31
47430;BME280;33181;49.246;7.372;2022-08-01T04:53:03;98940.56;;;22.84;60.14
47430;BME280;33181;49.246;7.372;2022-08-01T04:55:29;98939.59;;;23.40;58.68
47430;BME280;33181;49.246;7.372;2022-08-01T04:57:56;98944.28;;;24.06;56.75
47430;BME280;33181;49.246;7.372;2022-08-01T05:00:22;98944.44;;;24.71;55.32
47430;BME280;33181;49.246;7.372;2022-08-01T05:02:48;98947.72;;;24.86;54.14
47430;BME280;33181;49.246;7.372;2022-08-01T05:05:14;98946.03;;;24.92;54.10
47430;BME280;33181;49.246;7.372;2022-08-01T05:07:40;98947.56;;;24.61;54.36
47430;BME280;33181;49.246;7.372;2022-08-01T05:10:06;98947.56;;;24.01;55.60
47430;BME280;33181;49.246;7.372;2022-08-01T05:12:32;98946.88;;;23.59;56.85
47430;BME280;33181;49.246;7.372;2022-08-01T05:14:59;98946.44;;;23.49;57.40
47430;BME280;33181;49.246;7.372;2022-08-01T05:17:25;98942.69;;;23.44;57.32
47430;BME280;33181;49.246;7.372;2022-08-01T05:19:51;98949.41;;;23.20;57.95
47430;BME280;33181;49.246;7.372;2022-08-01T05:22:17;98952.88;;;23.13;58.12
47430;BME280;33181;49.246;7.372;2022-08-01T05:24:42;98951.38;;;22.98;58.49
47430;BME280;33181;49.246;7.372;2022-08-01T05:27:08;98955.75;;;22.71;59.39
47430;BME280;33181;49.246;7.372;2022-08-01T05:29:34;98958.78;;;22.61;60.11
47430;BME280;33181;49.246;7.372;2022-08-01T05:32:01;98960.81;;;22.59;60.37
47430;BME280;33181;49.246;7.372;2022-08-01T05:34:27;98956.63;;;22.50;60.20
47430;BME280;33181;49.246;7.372;2022-08-01T05:36:53;98960.34;;;22.49;60.74
47430;BME280;33181;49.246;7.372;2022-08-01T05:39:19;98962.75;;;22.43;60.62
47430;BME280;33181;49.246;7.372;2022-08-01T05:41:45;98957.41;;;22.43;61.26
47430;BME280;33181;49.246;7.372;2022-08-01T05:44:11;98960.00;;;22.30;61.24
47430;BME280;33181;49.246;7.372;2022-08-01T05:46:37;98954.25;;;22.12;61.93
47430;BME280;33181;49.246;7.372;2022-08-01T05:49:04;98963.81;;;21.99;62.61
47430;BME280;33181;49.246;7.372;2022-08-01T05:51:30;98948.84;;;22.05;62.28
47430;BME280;33181;49.246;7.372;2022-08-01T05:53:58;98960.81;;;22.09;62.52
47430;BME280;33181;49.246;7.372;2022-08-01T05:56:24;98963.47;;;22.09;62.24
47430;BME280;33181;49.246;7.372;2022-08-01T05:58:51;98970.63;;;22.02;62.92
47430;BME280;33181;49.246;7.372;2022-08-01T06:01:18;98966.16;;;22.09;62.63
47430;BME280;33181;49.246;7.372;2022-08-01T06:03:45;98966.56;;;22.28;61.94
47430;BME280;33181;49.246;7.372;2022-08-01T06:06:11;98966.00;;;22.32;61.87
47430;BME280;33181;49.246;7.372;2022-08-01T06:08:37;98963.19;;;22.47;61.53
47430;BME280;33181;49.246;7.372;2022-08-01T06:11:03;98966.53;;;22.49;61.42
47430;BME280;33181;49.246;7.372;2022-08-01T06:13:29;98966.94;;;22.53;61.33
47430;BME280;33181;49.246;7.372;2022-08-01T06:15:55;98978.69;;;22.52;61.50
47430;BME280;33181;49.246;7.372;2022-08-01T06:18:21;98985.38;;;22.41;61.93
47430;BME280;33181;49.246;7.372;2022-08-01T06:20:46;98981.88;;;22.40;62.04
47430;BME280;33181;49.246;7.372;2022-08-01T06:23:13;98983.06;;;22.31;62.28
47430;BME280;33181;49.246;7.372;2022-08-01T06:25:41;98980.09;;;22.19;62.60
47430;BME280;33181;49.246;7.372;2022-08-01T06:28:07;98985.84;;;22.16;63.03
47430;BME280;33181;49.246;7.372;2022-08-01T06:30:33;98974.78;;;22.26;62.96
47430;BME280;33181;49.246;7.372;2022-08-01T06:32:59;98986.31;;;22.27;62.60
47430;BME280;33181;49.246;7.372;2022-08-01T06:35:26;98976.31;;;22.35;62.67
47430;BME280;33181;49.246;7.372;2022-08-01T06:37:53;98985.00;;;22.44;62.52
47430;BME280;33181;49.246;7.372;2022-08-01T06:40:19;98985.94;;;22.58;62.41
47430;BME280;33181;49.246;7.372;2022-08-01T06:42:45;98985.22;;;22.71;61.96
47430;BME280;33181;49.246;7.372;2022-08-01T06:45:14;98979.88;;;22.77;61.75
47430;BME280;33181;49.246;7.372;2022-08-01T06:47:42;98980.41;;;22.94;61.71
47430;BME280;33181;49.246;7.372;2022-08-01T06:50:09;98967.41;;;23.32;60.34
47430;BME280;33181;49.246;7.372;2022-08-01T06:52:35;98972.25;;;23.64;59.43
47430;BME280;33181;49.246;7.372;2022-08-01T06:55:02;98977.72;;;24.03;58.32
47430;BME280;33181;49.246;7.372;2022-08-01T06:57:28;98975.44;;;24.00;58.21
47430;BME280;33181;49.246;7.372;2022-08-01T06:59:54;98974.00;;;24.18;57.82
47430;BME280;33181;49.246;7.372;2022-08-01T07:02:21;98976.91;;;24.10;58.07
47430;BME280;33181;49.246;7.372;2022-08-01T07:04:47;98978.94;;;24.21;58.03
47430;BME280;33181;49.246;7.372;2022-08-01T07:07:13;98978.34;;;24.25;58.24
47430;BME280;33181;49.246;7.372;2022-08-01T07:09:39;98978.56;;;24.57;56.98
47430;BME280;33181;49.246;7.372;2022-08-01T07:12:07;98979.56;;;24.83;56.36
47430;BME280;33181;49.246;7.372;2022-08-01T07:14:33;98973.91;;;25.11;55.43
47430;BME280;33181;49.246;7.372;2022-08-01T07:16:58;98975.53;;;25.12;55.63
47430;BME280;33181;49.246;7.372;2022-08-01T07:19:24;98974.28;;;25.21;55.41
47430;BME280;33181;49.246;7.372;2022-08-01T07:21:50;98977.19;;;25.26;54.87
47430;BME280;33181;49.246;7.372;2022-08-01T07:24:16;98980.59;;;25.47;54.60
47430;BME280;33181;49.246;7.372;2022-08-01T07:26:44;98970.56;;;25.67;53.62
47430;BME280;33181;49.246;7.372;2022-08-01T07:29:10;98966.94;;;25.86;53.53
47430;BME280;33181;49.246;7.372;2022-08-01T07:31:36;98971.50;;;26.18;52.99
47430;BME280;33181;49.246;7.372;2022-08-01T07:34:02;98967.94;;;26.49;51.90
47430;BME280;33181;49.246;7.372;2022-08-01T07:36:28;98972.56;;;26.35;52.00
47430;BME280;33181;49.246;7.372;2022-08-01T07:38:53;98972.13;;;26.38;52.02
47430;BME280;33181;49.246;7.372;2022-08-01T07:41:19;98975.88;;;26.62;51.59
47430;BME280;33181;49.246;7.372;2022-08-01T07:43:45;98958.91;;;26.98;50.83
47430;BME280;33181;49.246;7.372;2022-08-01T07:46:10;98967.53;;;27.44;49.38
47430;BME280;33181;49.246;7.372;2022-08-01T07:48:36;98963.16;;;27.73;48.33
47430;BME280;33181;49.246;7.372;2022-08-01T07:51:02;98965.63;;;28.05;47.87
47430;BME280;33181;49.246;7.372;2022-08-01T07:53:28;98962.22;;;27.98;47.40
47430;BME280;33181;49.246;7.372;2022-08-01T07:55:54;98972.59;;;28.24;47.52
47430;BME280;33181;49.246;7.372;2022-08-01T07:58:20;98968.25;;;28.35;46.76
47430;BME280;33181;49.246;7.372;2022-08-01T08:00:46;98973.66;;;28.35;46.30
47430;BME280;33181;49.246;7.372;2022-08-01T08:03:11;98969.44;;;28.39;46.50
47430;BME280;33181;49.246;7.372;2022-08-01T08:05:37;98978.28;;;28.46;46.43
47430;BME280;33181;49.246;7.372;2022-08-01T08:08:07;98969.69;;;28.61;45.73
47430;BME280;33181;49.246;7.372;2022-08-01T08:10:34;98979.09;;;28.70;45.80
47430;BME280;33181;49.246;7.372;2022-08-01T08:13:00;98974.28;;;28.60;45.23
47430;BME280;33181;49.246;7.372;2022-08-01T08:15:28;98976.75;;;28.74;44.90
47430;BME280;33181;49.246;7.372;2022-08-01T08:17:54;98978.28;;;28.70;44.75
47430;BME280;33181;49.246;7.372;2022-08-01T08:20:19;98976.41;;;28.58;45.87
47430;BME280;33181;49.246;7.372;2022-08-01T08:22:54;98970.44;;;28.56;45.57
47430;BME280;33181;49.246;7.372;2022-08-01T08:25:20;98972.53;;;28.54;45.49
47430;BME280;33181;49.246;7.372;2022-08-01T08:27:47;98975.09;;;28.37;45.82
47430;BME280;33181;49.246;7.372;2022-08-01T08:30:14;98965.53;;;28.23;46.25
47430;BME280;33181;49.246;7.372;2022-08-01T08:32:40;98967.63;;;27.98;46.69
47430;BME280;33181;49.246;7.372;2022-08-01T08:35:07;98965.53;;;28.23;46.16
47430;BME280;33181;49.246;7.372;2022-08-01T08:37:34;98963.47;;;28.49;45.41
47430;BME280;33181;49.246;7.372;2022-08-01T08:40:01;98958.88;;;28.73;44.96
47430;BME280;33181;49.246;7.372;2022-08-01T08:42:27;98961.94;;;28.88;44.49
47430;BME280;33181;49.246;7.372;2022-08-01T08:44:53;98971.56;;;28.84;45.84
47430;BME280;33181;49.246;7.372;2022-08-01T08:47:23;98963.34;;;28.79;44.93
47430;BME280;33181;49.246;7.372;2022-08-01T08:49:54;98963.09;;;28.80;44.80
47430;BME280;33181;49.246;7.372;2022-08-01T08:52:22;98957.69;;;28.69;44.57
47430;BME280;33181;49.246;7.372;2022-08-01T08:54:50;98954.88;;;28.40;45.38
47430;BME280;33181;49.246;7.372;2022-08-01T08:57:19;98950.50;;;28.39;46.34
47430;BME280;33181;49.246;7.372;2022-08-01T08:59:45;98953.22;;;28.39;46.14
47430;BME280;33181;49.246;7.372;2022-08-01T09:02:12;98959.88;;;28.01;46.05
47430;BME280;33181;49.246;7.372;2022-08-01T09:04:38;98956.09;;;27.90;46.64
47430;BME280;33181;49.246;7.372;2022-08-01T09:07:06;98959.06;;;27.40;47.53
47430;BME280;33181;49.246;7.372;2022-08-01T09:09:32;98953.31;;;27.18;48.25
47430;BME280;33181;49.246;7.372;2022-08-01T09:11:58;98960.25;;;27.08;48.91
47430;BME280;33181;49.246;7.372;2022-08-01T09:14:26;98961.06;;;27.15;48.32
47430;BME280;33181;49.246;7.372;2022-08-01T09:19:44;98963.47;;;26.79;48.63
47430;BME280;33181;49.246;7.372;2022-08-01T09:22:15;98967.81;;;26.62;48.95
47430;BME280;33181;49.246;7.372;2022-08-01T09:25:09;98975.69;;;26.82;49.08
47430;BME280;33181;49.246;7.372;2022-08-01T09:27:38;98976.75;;;26.99;48.11
47430;BME280;33181;49.246;7.372;2022-08-01T09:30:15;98974.28;;;27.35;47.40
47430;BME280;33181;49.246;7.372;2022-08-01T09:33:02;98979.50;;;27.48;47.13
47430;BME280;33181;49.246;7.372;2022-08-01T09:35:31;98966.34;;;27.40;47.33
47430;BME280;33181;49.246;7.372;2022-08-01T09:38:15;98976.34;;;27.51;46.73
47430;BME280;33181;49.246;7.372;2022-08-01T09:43:15;98970.81;;;27.76;46.17
47430;BME280;33181;49.246;7.372;2022-08-01T09:45:41;98969.34;;;27.92;45.69
47430;BME280;33181;49.246;7.372;2022-08-01T09:48:09;98965.69;;;27.86;45.33
47430;BME280;33181;49.246;7.372;2022-08-01T09:50:43;98971.56;;;27.83;46.18
47430;BME280;33181;49.246;7.372;2022-08-01T09:53:10;98971.72;;;27.70;46.06
47430;BME280;33181;49.246;7.372;2022-08-01T09:55:38;98965.25;;;27.59;46.61
47430;BME280;33181;49.246;7.372;2022-08-01T09:58:05;98976.84;;;27.60;46.64
47430;BME280;33181;49.246;7.372;2022-08-01T10:00:32;98971.19;;;27.49;46.53
47430;BME280;33181;49.246;7.372;2022-08-01T10:03:00;98970.19;;;27.62;46.78
47430;BME280;33181;49.246;7.372;2022-08-01T10:05:43;98974.75;;;27.62;46.69
47430;BME280;33181;49.246;7.372;2022-08-01T10:08:08;98974.22;;;27.71;46.38
47430;BME280;33181;49.246;7.372;2022-08-01T10:10:36;98977.94;;;27.70;46.29
47430;BME280;33181;49.246;7.372;2022-08-01T10:13:01;98986.19;;;27.76;46.47
47430;BME280;33181;49.246;7.372;2022-08-01T10:15:28;98972.38;;;27.54;46.40
47430;BME280;33181;49.246;7.372;2022-08-01T10:17:58;98972.81;;;27.50;46.89
47430;BME280;33181;49.246;7.372;2022-08-01T10:20:28;98968.88;;;27.35;47.37
47430;BME280;33181;49.246;7.372;2022-08-01T10:22:55;98974.56;;;27.45;46.78
47430;BME280;33181;49.246;7.372;2022-08-01T10:25:24;98977.69;;;27.60;46.62
47430;BME280;33181;49.246;7.372;2022-08-01T10:27:53;98964.06;;;27.85;46.14
47430;BME280;33181;49.246;7.372;2022-08-01T10:30:22;98972.75;;;27.87;46.95
47430;BME280;33181;49.246;7.372;2022-08-01T10:32:50;98965.53;;;28.11;45.97
47430;BME280;33181;49.246;7.372;2022-08-01T10:35:18;98972.00;;;28.22;45.50
47430;BME280;33181;49.246;7.372;2022-08-01T10:37:46;98965.97;;;28.08;45.22
47430;BME280;33181;49.246;7.372;2022-08-01T10:40:13;98971.81;;;27.63;45.46
47430;BME280;33181;49.246;7.372;2022-08-01T10:42:41;98958.19;;;27.58;45.58
47430;BME280;33181;49.246;7.372;2022-08-01T10:45:09;98961.22;;;27.50;46.28
47430;BME280;33181;49.246;7.372;2022-08-01T10:48:08;98961.75;;;27.40;46.47
47430;BME280;33181;49.246;7.372;2022-08-01T10:50:41;98947.97;;;27.30;47.10
47430;BME280;33181;49.246;7.372;2022-08-01T10:53:23;98954.34;;;26.99;48.07
47430;BME280;33181;49.246;7.372;2022-08-01T10:58:39;98949.13;;;27.22;48.06
47430;BME280;33181;49.246;7.372;2022-08-01T11:01:29;98945.22;;;27.18;47.76
47430;BME280;33181;49.246;7.372;2022-08-01T11:04:11;98947.66;;;27.38;48.60
47430;BME280;33181;49.246;7.372;2022-08-01T11:07:16;98949.31;;;27.69;47.57
47430;BME280;33181;49.246;7.372;2022-08-01T11:09:46;98948.69;;;27.86;47.23
47430;BME280;33181;49.246;7.372;2022-08-01T11:12:17;98951.88;;;27.94;46.32
47430;BME280;33181;49.246;7.372;2022-08-01T11:17:39;98950.44;;;27.92;46.50
47430;BME280;33181;49.246;7.372;2022-08-01T11:30:46;98943.84;;;27.58;46.41
47430;BME280;33181;49.246;7.372;2022-08-01T11:33:14;98949.34;;;27.21;47.77
47430;BME280;33181;49.246;7.372;2022-08-01T11:52:11;98937.44;;;27.59;46.49
47430;BME280;33181;49.246;7.372;2022-08-01T11:54:40;98934.78;;;27.40;46.83
47430;BME280;33181;49.246;7.372;2022-08-01T11:57:17;98943.31;;;27.37;47.54
47430;BME280;33181;49.246;7.372;2022-08-01T11:59:53;98934.53;;;27.42;46.96
47430;BME280;33181;49.246;7.372;2022-08-01T12:02:31;98938.84;;;27.31;47.22
47430;BME280;33181;49.246;7.372;2022-08-01T12:05:08;98937.25;;;27.23;47.30
47430;BME280;33181;49.246;7.372;2022-08-01T12:07:37;98940.19;;;27.22;47.20
47430;BME280;33181;49.246;7.372;2022-08-01T12:10:08;98937.78;;;27.32;47.05
47430;BME280;33181;49.246;7.372;2022-08-01T12:12:37;98934.34;;;27.55;46.88
47430;BME280;33181;49.246;7.372;2022-08-01T12:15:09;98941.44;;;27.68;46.69
47430;BME280;33181;49.246;7.372;2022-08-01T12:17:51;98941.25;;;27.51;46.08
47430;BME280;33181;49.246;7.372;2022-08-01T12:20:22;98937.22;;;27.42;46.60
47430;BME280;33181;49.246;7.372;2022-08-01T12:22:54;98943.25;;;27.25;46.74
47430;BME280;33181;49.246;7.372;2022-08-01T12:25:20;98943.34;;;27.19;47.00
47430;BME280;33181;49.246;7.372;2022-08-01T12:27:48;98948.44;;;27.27;47.34
47430;BME280;33181;49.246;7.372;2022-08-01T12:30:19;98935.31;;;27.31;47.09
47430;BME280;33181;49.246;7.372;2022-08-01T12:32:49;98952.44;;;27.36;46.59
47430;BME280;33181;49.246;7.372;2022-08-01T12:35:18;98944.16;;;27.38;46.38
47430;BME280;33181;49.246;7.372;2022-08-01T12:37:57;98944.91;;;27.26;46.80
47430;BME280;33181;49.246;7.372;2022-08-01T12:40:30;98944.78;;;27.21;47.10
47430;BME280;33181;49.246;7.372;2022-08-01T12:43:06;98937.25;;;27.23;47.33
47430;BME280;33181;49.246;7.372;2022-08-01T12:45:41;98934.50;;;27.60;46.70
47430;BME280;33181;49.246;7.372;2022-08-01T12:48:10;98934.94;;;27.57;46.22
47430;BME280;33181;49.246;7.372;2022-08-01T12:50:45;98930.84;;;27.85;46.29
47430;BME280;33181;49.246;7.372;2022-08-01T12:53:13;98936.50;;;27.95;45.39
47430;BME280;33181;49.246;7.372;2022-08-01T12:55:52;98938.94;;;27.85;45.53
47430;BME280;33181;49.246;7.372;2022-08-01T12:58:19;98942.63;;;27.72;45.50
47430;BME280;33181;49.246;7.372;2022-08-01T13:00:48;98937.81;;;27.74;45.71
47430;BME280;33181;49.246;7.372;2022-08-01T13:03:18;98940.16;;;27.70;46.17
47430;BME280;33181;49.246;7.372;2022-08-01T13:05:49;98944.81;;;27.82;45.87
47430;BME280;33181;49.246;7.372;2022-08-01T13:08:33;98939.50;;;27.87;45.66
47430;BME280;33181;49.246;7.372;2022-08-01T13:11:08;98936.84;;;27.99;45.83
47430;BME280;33181;49.246;7.372;2022-08-01T13:13:53;98927.13;;;28.33;45.24
47430;BME280;33181;49.246;7.372;2022-08-01T13:16:25;98941.72;;;28.44;44.34
47430;BME280;33181;49.246;7.372;2022-08-01T13:18:54;98935.59;;;28.36;44.87
47430;BME280;33181;49.246;7.372;2022-08-01T13:21:26;98923.25;;;28.17;45.23
47430;BME280;33181;49.246;7.372;2022-08-01T13:24:13;98926.00;;;27.87;45.09
47430;BME280;33181;49.246;7.372;2022-08-01T13:29:20;98914.91;;;28.30;44.42
47430;BME280;33181;49.246;7.372;2022-08-01T13:31:46;98907.91;;;28.41;44.19
47430;BME280;33181;49.246;7.372;2022-08-01T13:34:12;98906.59;;;28.44;43.70
47430;BME280;33181;49.246;7.372;2022-08-01T13:36:39;98906.47;;;28.38;44.02
47430;BME280;33181;49.246;7.372;2022-08-01T13:39:06;98904.69;;;28.32;44.17
47430;BME280;33181;49.246;7.372;2022-08-01T13:41:51;98916.22;;;28.16;44.72
47430;BME280;33181;49.246;7.372;2022-08-01T13:44:17;98920.91;;;28.21;44.40
47430;BME280;33181;49.246;7.372;2022-08-01T13:46:44;98922.78;;;28.20;43.97
47430;BME280;33181;49.246;7.372;2022-08-01T13:49:11;98923.31;;;28.40;43.49
47430;BME280;33181;49.246;7.372;2022-08-01T13:51:38;98926.09;;;28.46;43.28
47430;BME280;33181;49.246;7.372;2022-08-01T13:54:04;98918.00;;;28.57;43.23
47430;BME280;33181;49.246;7.372;2022-08-01T13:56:31;98902.66;;;28.75;43.23
47430;BME280;33181;49.246;7.372;2022-08-01T13:58:57;98917.66;;;29.18;43.11
47430;BME280;33181;49.246;7.372;2022-08-01T14:01:24;98910.47;;;29.23;42.00
47430;BME280;33181;49.246;7.372;2022-08-01T14:03:51;98903.94;;;29.36;41.69
47430;BME280;33181;49.246;7.372;2022-08-01T14:06:19;98912.25;;;29.18;41.78